createdAt,value
2023-05-23T20:15:42.808Z,9.70
2023-05-23T20:18:10.792Z,7.28
2023-05-23T20:20:38.739Z,8.38
2023-05-23T20:23:07.407Z,10.35
2023-05-23T20:25:35.433Z,9.38
2023-05-23T20:28:03.383Z,8.48
2023-05-23T20:30:31.352Z,10.65
2023-05-23T20:33:00.690Z,16.40
2023-05-23T20:35:28.758Z,16.20
2023-05-23T20:37:57.871Z,14.35
2023-05-23T20:40:29.687Z,15.65
2023-05-23T20:43:04.316Z,20.48
2023-05-23T20:45:32.439Z,20.38
2023-05-23T20:48:01.873Z,21.50
2023-05-23T20:50:31.265Z,25.15
2023-05-23T20:53:02.002Z,21.98
2023-05-23T20:55:30.494Z,24.35
2023-05-23T20:57:58.409Z,18.92
2023-05-23T21:00:26.346Z,28.85
2023-05-23T21:02:54.489Z,27.60
2023-05-23T21:05:23.929Z,28.90
2023-05-23T21:07:51.908Z,26.45
2023-05-23T21:10:19.954Z,31.95
2023-05-23T21:12:50.184Z,30.27
2023-05-23T21:15:18.439Z,30.88
2023-05-23T21:17:46.691Z,30.33
2023-05-23T21:20:14.714Z,28.27
2023-05-23T21:22:44.207Z,29.98
2023-05-23T21:25:12.177Z,37.05
2023-05-23T21:27:40.206Z,31.50
2023-05-23T21:30:09.356Z,38.20
2023-05-23T21:32:37.369Z,28.38
2023-05-23T21:35:05.815Z,36.25
2023-05-23T21:37:33.702Z,31.92
2023-05-23T21:40:06.773Z,32.72
2023-05-23T21:42:34.788Z,37.08
2023-05-23T21:45:03.048Z,33.33
2023-05-23T21:47:31.010Z,34.38
2023-05-23T21:49:58.920Z,33.58
2023-05-23T21:52:26.805Z,36.83
2023-05-23T21:54:54.669Z,34.03
2023-05-23T21:57:23.996Z,34.35
2023-05-23T21:59:51.908Z,37.00
2023-05-23T22:02:19.805Z,39.40
2023-05-23T22:04:47.789Z,39.67
2023-05-23T22:07:15.945Z,36.40
2023-05-23T22:09:43.843Z,41.40
2023-05-23T22:12:11.880Z,38.53
2023-05-23T22:14:41.150Z,34.13
2023-05-23T22:17:09.964Z,35.15
2023-05-23T22:19:37.881Z,39.47
2023-05-23T22:22:07.840Z,45.20
2023-05-23T22:24:35.747Z,37.28
2023-05-23T22:27:04.214Z,42.10
2023-05-23T22:29:32.137Z,42.03
2023-05-23T22:32:01.533Z,40.30
2023-05-23T22:34:29.911Z,44.00
2023-05-23T22:37:00.244Z,37.45
2023-05-23T22:39:28.395Z,40.17
2023-05-23T22:41:56.421Z,35.10
2023-05-23T22:44:24.342Z,44.45
2023-05-23T22:46:52.685Z,40.55
2023-05-23T22:49:22.259Z,37.38
2023-05-23T22:51:50.161Z,38.95
2023-05-23T22:54:18.095Z,43.95
2023-05-23T22:56:46.016Z,40.38
2023-05-23T22:59:13.903Z,41.80
